Terminal Aerodrome Forecast
Issued by NWS

Home | Current Version | Previous Version | Text Only | Print | Product List | Glossary On
Versions: 1 2 3 4 5 6 7 8 9 10 11 12 13 14 15 16 17 18 19 20 21 22 23 24 25
000
FTUS44 KBMX 170500
TAFTOI
TAF
KTOI 170533Z 1706/1806 00000KT P6SM FEW060 OVC100
      TEMPO 1709/1713 3SM BR
     FM171400 31006KT P6SM SCT250
     FM180000 00000KT P6SM SCT250=

USA.gov is the U.S. government's official web portal to all federal, state and local government web resources and services.